sensor_id;sensor_type;location;lat;lon;timestamp;pressure;altitude;pressure_sealevel;temperature;humidity
23118;BME280;11728;50.624;6.014;2023-02-23T00:01:28;97883.75;;;10.69;99.62
23118;BME280;11728;50.624;6.014;2023-02-23T00:06:30;97889.28;;;10.61;99.64
23118;BME280;11728;50.624;6.014;2023-02-23T00:11:30;97886.06;;;10.50;100.00
23118;BME280;11728;50.624;6.014;2023-02-23T00:16:32;97884.28;;;10.51;100.00
23118;BME280;11728;50.624;6.014;2023-02-23T00:21:33;97889.75;;;10.45;99.95
23118;BME280;11728;50.624;6.014;2023-02-23T00:26:39;97892.38;;;10.45;100.00
23118;BME280;11728;50.624;6.014;2023-02-23T00:31:42;97888.94;;;10.43;100.00
23118;BME280;11728;50.624;6.014;2023-02-23T00:36:43;97890.56;;;10.47;100.00
23118;BME280;11728;50.624;6.014;2023-02-23T00:41:44;97889.72;;;10.46;99.93
23118;BME280;11728;50.624;6.014;2023-02-23T00:46:45;97889.78;;;10.43;99.75
23118;BME280;11728;50.624;6.014;2023-02-23T00:51:50;97888.25;;;10.36;99.60
23118;BME280;11728;50.624;6.014;2023-02-23T00:56:51;97889.09;;;10.37;99.91
23118;BME280;11728;50.624;6.014;2023-02-23T01:01:51;97897.94;;;10.36;99.72
23118;BME280;11728;50.624;6.014;2023-02-23T01:06:51;97898.84;;;10.35;99.68
23118;BME280;11728;50.624;6.014;2023-02-23T01:11:52;97895.44;;;10.30;99.59
23118;BME280;11728;50.624;6.014;2023-02-23T01:16:55;97898.44;;;10.18;100.00
23118;BME280;11728;50.624;6.014;2023-02-23T01:21:55;97895.31;;;10.04;100.00
23118;BME280;11728;50.624;6.014;2023-02-23T01:26:56;97894.41;;;10.05;100.00
23118;BME280;11728;50.624;6.014;2023-02-23T01:31:56;97896.94;;;10.08;100.00
23118;BME280;11728;50.624;6.014;2023-02-23T01:36:57;97899.59;;;10.08;100.00
23118;BME280;11728;50.624;6.014;2023-02-23T01:41:57;97896.00;;;10.10;100.00
23118;BME280;11728;50.624;6.014;2023-02-23T01:46:57;97895.16;;;10.10;100.00
23118;BME280;11728;50.624;6.014;2023-02-23T01:52:03;97895.06;;;10.13;100.00
23118;BME280;11728;50.624;6.014;2023-02-23T01:57:05;97900.34;;;10.13;100.00
23118;BME280;11728;50.624;6.014;2023-02-23T02:02:06;97893.41;;;10.09;100.00
23118;BME280;11728;50.624;6.014;2023-02-23T02:07:07;97897.72;;;10.13;100.00
23118;BME280;11728;50.624;6.014;2023-02-23T02:12:11;97899.47;;;10.12;100.00
23118;BME280;11728;50.624;6.014;2023-02-23T02:17:33;97896.88;;;10.11;100.00
23118;BME280;11728;50.624;6.014;2023-02-23T02:38:50;97891.59;;;10.11;100.00
23118;BME280;11728;50.624;6.014;2023-02-23T02:44:00;97886.75;;;9.94;100.00
23118;BME280;11728;50.624;6.014;2023-02-23T02:49:14;97883.47;;;9.87;100.00
23118;BME280;11728;50.624;6.014;2023-02-23T03:00:01;97879.13;;;9.84;100.00
23118;BME280;11728;50.624;6.014;2023-02-23T03:05:23;97881.19;;;9.73;100.00
23118;BME280;11728;50.624;6.014;2023-02-23T03:10:59;97876.72;;;9.75;100.00
23118;BME280;11728;50.624;6.014;2023-02-23T03:16:30;97883.69;;;9.78;100.00
23118;BME280;11728;50.624;6.014;2023-02-23T03:27:45;97892.78;;;9.66;100.00
23118;BME280;11728;50.624;6.014;2023-02-23T03:33:14;97892.72;;;9.69;100.00
23118;BME280;11728;50.624;6.014;2023-02-23T03:38:44;97888.22;;;9.73;100.00
23118;BME280;11728;50.624;6.014;2023-02-23T03:44:10;97895.19;;;9.75;100.00
23118;BME280;11728;50.624;6.014;2023-02-23T03:49:34;97894.31;;;9.75;100.00
23118;BME280;11728;50.624;6.014;2023-02-23T03:54:58;97899.69;;;9.70;100.00
23118;BME280;11728;50.624;6.014;2023-02-23T04:00:29;97891.84;;;9.69;100.00
23118;BME280;11728;50.624;6.014;2023-02-23T04:05:50;97905.13;;;9.66;100.00
23118;BME280;11728;50.624;6.014;2023-02-23T04:11:18;97906.00;;;9.65;100.00
23118;BME280;11728;50.624;6.014;2023-02-23T04:16:41;97900.75;;;9.65;100.00
23118;BME280;11728;50.624;6.014;2023-02-23T04:21:42;97908.66;;;9.63;100.00
23118;BME280;11728;50.624;6.014;2023-02-23T04:26:43;97903.38;;;9.63;100.00
23118;BME280;11728;50.624;6.014;2023-02-23T04:31:43;97914.78;;;9.65;100.00
23118;BME280;11728;50.624;6.014;2023-02-23T04:36:43;97917.41;;;9.65;100.00
23118;BME280;11728;50.624;6.014;2023-02-23T04:41:44;97920.88;;;9.67;100.00
23118;BME280;11728;50.624;6.014;2023-02-23T04:46:44;97915.66;;;9.64;100.00
23118;BME280;11728;50.624;6.014;2023-02-23T04:51:45;97925.38;;;9.64;100.00
23118;BME280;11728;50.624;6.014;2023-02-23T04:56:46;97926.44;;;9.55;100.00
23118;BME280;11728;50.624;6.014;2023-02-23T05:01:47;97921.22;;;9.54;100.00
23118;BME280;11728;50.624;6.014;2023-02-23T05:06:47;97926.47;;;9.54;100.00
23118;BME280;11728;50.624;6.014;2023-02-23T05:11:48;97930.13;;;9.48;100.00
23118;BME280;11728;50.624;6.014;2023-02-23T05:16:48;97930.22;;;9.45;100.00
23118;BME280;11728;50.624;6.014;2023-02-23T05:21:48;97927.44;;;9.51;100.00
23118;BME280;11728;50.624;6.014;2023-02-23T05:26:49;97931.97;;;9.46;100.00
23118;BME280;11728;50.624;6.014;2023-02-23T05:31:50;97929.31;;;9.46;100.00
23118;BME280;11728;50.624;6.014;2023-02-23T05:36:50;97935.34;;;9.51;100.00
23118;BME280;11728;50.624;6.014;2023-02-23T05:41:51;97936.13;;;9.55;100.00
23118;BME280;11728;50.624;6.014;2023-02-23T05:46:51;97933.50;;;9.55;100.00
23118;BME280;11728;50.624;6.014;2023-02-23T05:51:52;97932.63;;;9.54;100.00
23118;BME280;11728;50.624;6.014;2023-02-23T05:56:52;97935.34;;;9.51;100.00
23118;BME280;11728;50.624;6.014;2023-02-23T06:01:53;97936.97;;;9.55;100.00
23118;BME280;11728;50.624;6.014;2023-02-23T06:06:53;97938.81;;;9.53;100.00
23118;BME280;11728;50.624;6.014;2023-02-23T06:11:53;97944.09;;;9.52;100.00
23118;BME280;11728;50.624;6.014;2023-02-23T06:16:54;97953.09;;;9.43;100.00
23118;BME280;11728;50.624;6.014;2023-02-23T06:21:54;97961.06;;;9.42;100.00
23118;BME280;11728;50.624;6.014;2023-02-23T06:26:54;97960.91;;;9.48;100.00
23118;BME280;11728;50.624;6.014;2023-02-23T06:31:55;97958.31;;;9.46;100.00
23118;BME280;11728;50.624;6.014;2023-02-23T06:36:55;97968.84;;;9.46;100.00
23118;BME280;11728;50.624;6.014;2023-02-23T06:41:56;97974.06;;;9.48;100.00
23118;BME280;11728;50.624;6.014;2023-02-23T06:46:56;97978.50;;;9.47;100.00
23118;BME280;11728;50.624;6.014;2023-02-23T06:51:56;97986.34;;;9.49;100.00
23118;BME280;11728;50.624;6.014;2023-02-23T06:56:57;97987.19;;;9.51;100.00
23118;BME280;11728;50.624;6.014;2023-02-23T07:01:57;97997.75;;;9.49;100.00
23118;BME280;11728;50.624;6.014;2023-02-23T07:06:58;97997.84;;;9.46;100.00
23118;BME280;11728;50.624;6.014;2023-02-23T07:11:59;98005.66;;;9.49;100.00
23118;BME280;11728;50.624;6.014;2023-02-23T07:16:59;98017.13;;;9.47;100.00
23118;BME280;11728;50.624;6.014;2023-02-23T07:22:00;98018.22;;;9.38;100.00
23118;BME280;11728;50.624;6.014;2023-02-23T07:27:00;98024.44;;;9.36;100.00
23118;BME280;11728;50.624;6.014;2023-02-23T07:32:00;98025.25;;;9.39;100.00
23118;BME280;11728;50.624;6.014;2023-02-23T07:37:01;98026.84;;;9.46;100.00
23118;BME280;11728;50.624;6.014;2023-02-23T07:42:02;98032.09;;;9.46;100.00
23118;BME280;11728;50.624;6.014;2023-02-23T07:47:03;98038.97;;;9.53;100.00
23118;BME280;11728;50.624;6.014;2023-02-23T07:52:04;98038.78;;;9.61;100.00
23118;BME280;11728;50.624;6.014;2023-02-23T07:57:04;98046.34;;;9.76;100.00
23118;BME280;11728;50.624;6.014;2023-02-23T08:02:04;98045.19;;;10.57;100.00
23118;BME280;11728;50.624;6.014;2023-02-23T08:07:06;98049.41;;;10.29;100.00
23118;BME280;11728;50.624;6.014;2023-02-23T08:12:06;98053.44;;;10.10;100.00
23118;BME280;11728;50.624;6.014;2023-02-23T08:17:08;98053.63;;;10.02;100.00
23118;BME280;11728;50.624;6.014;2023-02-23T08:22:08;98062.25;;;10.09;100.00
23118;BME280;11728;50.624;6.014;2023-02-23T08:27:09;98056.19;;;10.05;100.00
23118;BME280;11728;50.624;6.014;2023-02-23T08:32:09;98056.06;;;10.10;100.00
23118;BME280;11728;50.624;6.014;2023-02-23T08:37:10;98064.84;;;10.10;100.00
23118;BME280;11728;50.624;6.014;2023-02-23T08:42:10;98079.81;;;10.10;100.00
23118;BME280;11728;50.624;6.014;2023-02-23T08:47:11;98081.72;;;10.05;100.00
23118;BME280;11728;50.624;6.014;2023-02-23T08:52:11;98093.22;;;10.01;100.00
23118;BME280;11728;50.624;6.014;2023-02-23T08:57:11;98088.97;;;9.94;100.00
23118;BME280;11728;50.624;6.014;2023-02-23T09:02:13;98095.94;;;9.96;100.00
23118;BME280;11728;50.624;6.014;2023-02-23T09:07:16;98097.78;;;9.93;100.00
23118;BME280;11728;50.624;6.014;2023-02-23T09:12:16;98096.81;;;9.95;100.00
23118;BME280;11728;50.624;6.014;2023-02-23T09:17:17;98098.72;;;9.91;100.00
23118;BME280;11728;50.624;6.014;2023-02-23T09:22:17;98106.66;;;9.89;100.00
23118;BME280;11728;50.624;6.014;2023-02-23T09:27:18;98109.41;;;9.85;100.00
23118;BME280;11728;50.624;6.014;2023-02-23T09:32:19;98111.94;;;9.89;100.00
23118;BME280;11728;50.624;6.014;2023-02-23T09:37:19;98121.59;;;9.90;100.00
23118;BME280;11728;50.624;6.014;2023-02-23T09:48:09;98136.38;;;9.95;100.00
23118;BME280;11728;50.624;6.014;2023-02-23T09:53:56;98143.50;;;9.92;100.00
23118;BME280;11728;50.624;6.014;2023-02-23T09:58:50;98137.41;;;9.90;100.00
23118;BME280;11728;50.624;6.014;2023-02-23T10:09:13;98149.00;;;9.83;100.00
23118;BME280;11728;50.624;6.014;2023-02-23T10:24:44;98156.88;;;9.85;100.00
23118;BME280;11728;50.624;6.014;2023-02-23T10:29:57;98154.03;;;9.93;100.00
23118;BME280;11728;50.624;6.014;2023-02-23T10:35:00;98160.91;;;10.02;100.00
23118;BME280;11728;50.624;6.014;2023-02-23T10:40:01;98159.81;;;10.10;100.00
23118;BME280;11728;50.624;6.014;2023-02-23T10:45:12;98154.41;;;10.16;100.00
23118;BME280;11728;50.624;6.014;2023-02-23T10:50:22;98158.72;;;10.20;100.00
23118;BME280;11728;50.624;6.014;2023-02-23T10:55:30;98166.22;;;10.37;100.00
23118;BME280;11728;50.624;6.014;2023-02-23T11:00:33;98164.56;;;10.68;100.00
23118;BME280;11728;50.624;6.014;2023-02-23T11:05:48;98170.16;;;10.56;100.00
23118;BME280;11728;50.624;6.014;2023-02-23T11:15:59;98162.16;;;10.24;100.00
23118;BME280;11728;50.624;6.014;2023-02-23T11:21:01;98160.94;;;10.37;100.00
23118;BME280;11728;50.624;6.014;2023-02-23T11:26:05;98165.16;;;10.44;100.00
23118;BME280;11728;50.624;6.014;2023-02-23T11:31:28;98157.28;;;10.42;100.00
23118;BME280;11728;50.624;6.014;2023-02-23T11:36:35;98155.22;;;10.20;100.00
23118;BME280;11728;50.624;6.014;2023-02-23T11:41:35;98149.25;;;10.10;100.00
23118;BME280;11728;50.624;6.014;2023-02-23T11:46:36;98152.38;;;10.27;100.00
23118;BME280;11728;50.624;6.014;2023-02-23T11:51:40;98161.56;;;10.48;100.00
23118;BME280;11728;50.624;6.014;2023-02-23T11:56:47;98158.88;;;10.49;100.00
23118;BME280;11728;50.624;6.014;2023-02-23T12:02:02;98147.31;;;10.20;100.00
23118;BME280;11728;50.624;6.014;2023-02-23T12:07:35;98141.88;;;10.26;100.00
23118;BME280;11728;50.624;6.014;2023-02-23T12:18:21;98135.94;;;10.16;100.00
23118;BME280;11728;50.624;6.014;2023-02-23T12:23:29;98144.31;;;9.95;100.00
23118;BME280;11728;50.624;6.014;2023-02-23T12:28:37;98141.00;;;9.88;100.00
23118;BME280;11728;50.624;6.014;2023-02-23T12:33:41;98148.63;;;10.01;100.00
23118;BME280;11728;50.624;6.014;2023-02-23T12:38:50;98146.03;;;9.96;100.00
23118;BME280;11728;50.624;6.014;2023-02-23T12:44:01;98143.75;;;10.21;100.00
23118;BME280;11728;50.624;6.014;2023-02-23T12:49:34;98147.63;;;10.43;100.00
23118;BME280;11728;50.624;6.014;2023-02-23T12:54:36;98149.03;;;10.56;100.00
23118;BME280;11728;50.624;6.014;2023-02-23T13:04:56;98155.13;;;10.23;100.00
23118;BME280;11728;50.624;6.014;2023-02-23T13:20:38;98142.84;;;10.22;100.00
23118;BME280;11728;50.624;6.014;2023-02-23T13:30:59;98145.88;;;10.42;100.00
23118;BME280;11728;50.624;6.014;2023-02-23T13:36:02;98152.31;;;10.65;100.00
23118;BME280;11728;50.624;6.014;2023-02-23T13:46:33;98152.38;;;10.27;100.00
23118;BME280;11728;50.624;6.014;2023-02-23T13:56:44;98154.34;;;10.19;100.00
23118;BME280;11728;50.624;6.014;2023-02-23T14:01:49;98161.50;;;10.14;100.00
23118;BME280;11728;50.624;6.014;2023-02-23T14:07:00;98165.97;;;10.11;100.00
23118;BME280;11728;50.624;6.014;2023-02-23T14:22:34;98157.16;;;10.12;100.00
23118;BME280;11728;50.624;6.014;2023-02-23T14:27:42;98159.59;;;10.21;100.00
23118;BME280;11728;50.624;6.014;2023-02-23T14:32:45;98161.94;;;10.33;100.00
23118;BME280;11728;50.624;6.014;2023-02-23T14:37:55;98163.47;;;10.43;99.86
23118;BME280;11728;50.624;6.014;2023-02-23T14:43:00;98174.13;;;10.37;99.79
23118;BME280;11728;50.624;6.014;2023-02-23T14:48:04;98171.00;;;10.21;99.71
23118;BME280;11728;50.624;6.014;2023-02-23T14:53:20;98186.28;;;10.07;99.89
23118;BME280;11728;50.624;6.014;2023-02-23T14:58:30;98180.34;;;9.98;99.93
23118;BME280;11728;50.624;6.014;2023-02-23T15:03:34;98183.06;;;9.92;99.92
23118;BME280;11728;50.624;6.014;2023-02-23T15:08:39;98192.72;;;9.93;99.70
23118;BME280;11728;50.624;6.014;2023-02-23T15:13:46;98190.94;;;9.95;99.36
23118;BME280;11728;50.624;6.014;2023-02-23T15:18:49;98195.34;;;9.93;99.59
23118;BME280;11728;50.624;6.014;2023-02-23T15:24:11;98188.38;;;9.91;99.92
23118;BME280;11728;50.624;6.014;2023-02-23T15:29:15;98198.09;;;9.90;99.87
23118;BME280;11728;50.624;6.014;2023-02-23T15:34:17;98194.59;;;9.88;99.67
23118;BME280;11728;50.624;6.014;2023-02-23T15:39:24;98207.03;;;9.83;99.87
23118;BME280;11728;50.624;6.014;2023-02-23T15:44:29;98205.19;;;9.85;99.70
23118;BME280;11728;50.624;6.014;2023-02-23T15:49:37;98199.03;;;9.88;99.85
23118;BME280;11728;50.624;6.014;2023-02-23T15:54:47;98196.59;;;10.18;99.12
23118;BME280;11728;50.624;6.014;2023-02-23T15:59:50;98196.19;;;9.98;99.29
23118;BME280;11728;50.624;6.014;2023-02-23T16:04:53;98199.03;;;9.88;99.64
23118;BME280;11728;50.624;6.014;2023-02-23T16:10:21;98199.13;;;9.82;99.82
23118;BME280;11728;50.624;6.014;2023-02-23T16:15:27;98196.53;;;9.80;99.96
23118;BME280;11728;50.624;6.014;2023-02-23T16:20:34;98197.41;;;9.79;99.59
23118;BME280;11728;50.624;6.014;2023-02-23T16:25:40;98199.25;;;9.76;99.75
23118;BME280;11728;50.624;6.014;2023-02-23T16:31:03;98201.06;;;9.74;99.83
23118;BME280;11728;50.624;6.014;2023-02-23T16:41:18;98197.03;;;9.58;99.90
23118;BME280;11728;50.624;6.014;2023-02-23T16:46:22;98193.59;;;9.54;100.00
23118;BME280;11728;50.624;6.014;2023-02-23T16:51:25;98183.94;;;9.52;99.97
23118;BME280;11728;50.624;6.014;2023-02-23T16:56:26;98189.34;;;9.46;99.84
23118;BME280;11728;50.624;6.014;2023-02-23T17:01:27;98191.16;;;9.42;100.00
23118;BME280;11728;50.624;6.014;2023-02-23T17:06:28;98194.06;;;9.30;100.00
23118;BME280;11728;50.624;6.014;2023-02-23T17:11:28;98199.59;;;9.17;100.00
23118;BME280;11728;50.624;6.014;2023-02-23T17:16:28;98203.25;;;9.09;100.00
23118;BME280;11728;50.624;6.014;2023-02-23T17:21:29;98198.94;;;9.05;100.00
23118;BME280;11728;50.624;6.014;2023-02-23T17:26:30;98208.53;;;9.09;100.00
23118;BME280;11728;50.624;6.014;2023-02-23T17:31:31;98200.56;;;9.12;100.00
23118;BME280;11728;50.624;6.014;2023-02-23T17:36:31;98206.72;;;9.11;100.00
23118;BME280;11728;50.624;6.014;2023-02-23T17:41:32;98210.28;;;9.10;100.00
23118;BME280;11728;50.624;6.014;2023-02-23T17:46:33;98211.22;;;9.06;100.00
23118;BME280;11728;50.624;6.014;2023-02-23T17:51:34;98213.91;;;9.03;100.00
23118;BME280;11728;50.624;6.014;2023-02-23T17:56:35;98215.63;;;9.04;100.00
23118;BME280;11728;50.624;6.014;2023-02-23T18:01:35;98218.22;;;9.07;100.00
23118;BME280;11728;50.624;6.014;2023-02-23T18:06:36;98223.50;;;9.07;100.00
23118;BME280;11728;50.624;6.014;2023-02-23T18:11:36;98219.09;;;9.06;100.00
23118;BME280;11728;50.624;6.014;2023-02-23T18:16:37;98221.66;;;9.10;100.00
23118;BME280;11728;50.624;6.014;2023-02-23T18:21:37;98225.34;;;9.02;100.00
23118;BME280;11728;50.624;6.014;2023-02-23T18:26:40;98216.63;;;8.98;100.00
23118;BME280;11728;50.624;6.014;2023-02-23T18:31:40;98227.25;;;8.94;100.00
23118;BME280;11728;50.624;6.014;2023-02-23T18:36:41;98235.13;;;8.94;100.00
23118;BME280;11728;50.624;6.014;2023-02-23T18:41:42;98229.88;;;8.94;100.00
23118;BME280;11728;50.624;6.014;2023-02-23T18:46:44;98233.28;;;8.99;100.00
23118;BME280;11728;50.624;6.014;2023-02-23T18:51:45;98226.25;;;9.01;100.00
23118;BME280;11728;50.624;6.014;2023-02-23T18:56:47;98230.66;;;8.99;100.00
23118;BME280;11728;50.624;6.014;2023-02-23T19:01:48;98222.81;;;8.96;100.00
23118;BME280;11728;50.624;6.014;2023-02-23T19:06:48;98222.81;;;8.94;100.00
23118;BME280;11728;50.624;6.014;2023-02-23T19:11:48;98219.38;;;8.91;100.00
23118;BME280;11728;50.624;6.014;2023-02-23T19:16:50;98223.72;;;8.93;100.00
23118;BME280;11728;50.624;6.014;2023-02-23T19:21:50;98218.44;;;8.93;100.00
23118;BME280;11728;50.624;6.014;2023-02-23T19:26:50;98216.72;;;8.92;100.00
23118;BME280;11728;50.624;6.014;2023-02-23T19:31:51;98217.72;;;8.87;100.00
23118;BME280;11728;50.624;6.014;2023-02-23T19:36:51;98220.47;;;8.79;100.00
23118;BME280;11728;50.624;6.014;2023-02-23T19:41:51;98230.88;;;8.85;100.00
23118;BME280;11728;50.624;6.014;2023-02-23T19:46:52;98233.63;;;8.81;100.00
23118;BME280;11728;50.624;6.014;2023-02-23T19:51:52;98228.50;;;8.72;100.00
23118;BME280;11728;50.624;6.014;2023-02-23T19:56:53;98236.56;;;8.61;100.00
23118;BME280;11728;50.624;6.014;2023-02-23T20:01:53;98232.28;;;8.56;100.00
23118;BME280;11728;50.624;6.014;2023-02-23T20:06:54;98246.41;;;8.49;100.00
23118;BME280;11728;50.624;6.014;2023-02-23T20:11:55;98242.22;;;8.38;100.00
23118;BME280;11728;50.624;6.014;2023-02-23T20:16:55;98248.44;;;8.31;100.00
23118;BME280;11728;50.624;6.014;2023-02-23T20:21:56;98254.53;;;8.34;100.00
23118;BME280;11728;50.624;6.014;2023-02-23T20:26:56;98251.91;;;8.34;100.00
23118;BME280;11728;50.624;6.014;2023-02-23T20:31:59;98245.00;;;8.27;100.00
23118;BME280;11728;50.624;6.014;2023-02-23T20:37:00;98251.19;;;8.23;100.00
23118;BME280;11728;50.624;6.014;2023-02-23T20:42:02;98253.00;;;8.18;100.00
23118;BME280;11728;50.624;6.014;2023-02-23T20:47:03;98251.28;;;8.17;100.00
23118;BME280;11728;50.624;6.014;2023-02-23T20:52:08;98252.16;;;8.18;100.00
23118;BME280;11728;50.624;6.014;2023-02-23T20:57:11;98245.13;;;8.18;100.00
23118;BME280;11728;50.624;6.014;2023-02-23T21:02:11;98241.44;;;8.30;100.00
23118;BME280;11728;50.624;6.014;2023-02-23T21:07:14;98246.56;;;8.37;100.00
23118;BME280;11728;50.624;6.014;2023-02-23T21:12:14;98237.72;;;8.44;100.00
23118;BME280;11728;50.624;6.014;2023-02-23T21:17:14;98241.31;;;8.37;100.00
23118;BME280;11728;50.624;6.014;2023-02-23T21:22:15;98236.28;;;8.22;100.00
23118;BME280;11728;50.624;6.014;2023-02-23T21:27:16;98225.84;;;8.16;100.00
23118;BME280;11728;50.624;6.014;2023-02-23T21:32:16;98225.78;;;8.21;100.00
23118;BME280;11728;50.624;6.014;2023-02-23T21:37:17;98222.34;;;8.17;100.00
23118;BME280;11728;50.624;6.014;2023-02-23T21:42:17;98213.63;;;8.12;100.00
23118;BME280;11728;50.624;6.014;2023-02-23T21:47:20;98217.16;;;8.08;100.00
23118;BME280;11728;50.624;6.014;2023-02-23T21:52:21;98207.56;;;8.06;100.00
23118;BME280;11728;50.624;6.014;2023-02-23T21:57:21;98198.09;;;7.96;100.00
23118;BME280;11728;50.624;6.014;2023-02-23T22:02:22;98199.81;;;7.98;100.00
23118;BME280;11728;50.624;6.014;2023-02-23T22:07:22;98201.59;;;7.96;100.00
23118;BME280;11728;50.624;6.014;2023-02-23T22:12:22;98212.88;;;8.01;100.00
23118;BME280;11728;50.624;6.014;2023-02-23T22:17:24;98198.91;;;7.99;100.00
23118;BME280;11728;50.624;6.014;2023-02-23T22:22:24;98207.63;;;8.03;100.00
23118;BME280;11728;50.624;6.014;2023-02-23T22:27:25;98205.91;;;7.99;100.00
23118;BME280;11728;50.624;6.014;2023-02-23T22:32:27;98191.09;;;7.95;100.00
23118;BME280;11728;50.624;6.014;2023-02-23T22:37:31;98200.78;;;7.90;100.00
23118;BME280;11728;50.624;6.014;2023-02-23T22:42:32;98204.38;;;7.86;100.00
23118;BME280;11728;50.624;6.014;2023-02-23T22:47:34;98196.50;;;7.84;100.00
23118;BME280;11728;50.624;6.014;2023-02-23T22:52:35;98192.16;;;7.80;100.00
23118;BME280;11728;50.624;6.014;2023-02-23T22:57:35;98189.50;;;7.83;100.00
23118;BME280;11728;50.624;6.014;2023-02-23T23:02:35;98187.69;;;7.85;100.00
23118;BME280;11728;50.624;6.014;2023-02-23T23:07:36;98189.41;;;7.89;100.00
23118;BME280;11728;50.624;6.014;2023-02-23T23:12:36;98184.16;;;7.89;100.00
23118;BME280;11728;50.624;6.014;2023-02-23T23:17:37;98170.13;;;7.90;100.00
23118;BME280;11728;50.624;6.014;2023-02-23T23:22:37;98171.91;;;7.88;100.00
23118;BME280;11728;50.624;6.014;2023-02-23T23:27:37;98173.66;;;7.89;100.00
23118;BME280;11728;50.624;6.014;2023-02-23T23:32:40;98163.97;;;7.91;100.00
23118;BME280;11728;50.624;6.014;2023-02-23T23:37:41;98158.69;;;7.93;100.00
23118;BME280;11728;50.624;6.014;2023-02-23T23:42:43;98154.31;;;7.92;100.00
23118;BME280;11728;50.624;6.014;2023-02-23T23:47:45;98132.63;;;7.78;100.00
23118;BME280;11728;50.624;6.014;2023-02-23T23:52:46;98133.63;;;7.69;100.00
23118;BME280;11728;50.624;6.014;2023-02-23T23:57:46;98114.50;;;7.62;100.00
